createdAt,value
2019-02-10T00:01:20.213Z,50.90
2019-02-10T00:03:52.067Z,51.00
2019-02-10T00:06:24.999Z,51.00
2019-02-10T00:08:57.156Z,51.10
2019-02-10T00:11:29.188Z,51.00
2019-02-10T00:14:01.338Z,51.00
2019-02-10T00:16:33.373Z,51.10
2019-02-10T00:19:05.313Z,51.20
2019-02-10T00:21:37.198Z,51.20
2019-02-10T00:24:09.183Z,51.20
2019-02-10T00:26:41.085Z,51.70
2019-02-10T00:29:13.209Z,51.20
2019-02-10T00:31:45.239Z,51.20
2019-02-10T00:34:17.293Z,51.40
2019-02-10T00:36:49.141Z,51.30
2019-02-10T00:39:21.371Z,51.30
2019-02-10T00:41:53.222Z,51.30
2019-02-10T00:44:25.213Z,51.40
2019-02-10T00:46:57.257Z,51.40
2019-02-10T00:49:29.156Z,51.30
2019-02-10T00:52:01.308Z,51.40
2019-02-10T00:54:33.265Z,51.30
2019-02-10T00:57:05.429Z,51.40
2019-02-10T00:59:37.433Z,51.40
2019-02-10T01:02:09.467Z,51.40
2019-02-10T01:04:41.366Z,52.00
2019-02-10T01:07:13.361Z,51.40
2019-02-10T01:09:45.389Z,51.40
2019-02-10T01:12:17.227Z,51.60
2019-02-10T01:14:49.094Z,51.50
2019-02-10T01:17:21.137Z,51.60
2019-02-10T01:19:53.146Z,51.60
2019-02-10T01:22:24.984Z,51.70
2019-02-10T01:24:56.776Z,51.60
2019-02-10T01:27:28.721Z,51.70
2019-02-10T01:30:00.726Z,51.70
2019-02-10T01:32:32.848Z,51.70
2019-02-10T01:35:04.920Z,51.40
2019-02-10T01:37:36.721Z,51.70
2019-02-10T01:40:09.933Z,51.80
2019-02-10T01:42:42.055Z,51.90
2019-02-10T01:45:14.655Z,52.00
2019-02-10T01:47:46.654Z,52.00
2019-02-10T01:50:19.749Z,51.90
2019-02-10T01:52:51.605Z,52.20
2019-02-10T01:55:23.431Z,52.20
2019-02-10T01:57:55.404Z,52.30
2019-02-10T02:00:27.561Z,52.30
2019-02-10T02:02:59.351Z,52.40
2019-02-10T02:05:31.198Z,52.50
2019-02-10T02:08:03.051Z,52.60
2019-02-10T02:10:35.069Z,52.50
2019-02-10T02:13:07.027Z,52.70
2019-02-10T02:15:38.842Z,52.70
2019-02-10T02:18:10.712Z,52.80
2019-02-10T02:20:42.831Z,52.90
2019-02-10T02:23:14.790Z,53.50
2019-02-10T02:25:46.865Z,52.90
2019-02-10T02:28:18.705Z,52.90
2019-02-10T02:30:50.538Z,53.00
2019-02-10T02:33:22.369Z,53.10
2019-02-10T02:35:54.190Z,53.20
2019-02-10T02:38:26.004Z,53.20
2019-02-10T02:40:58.000Z,53.30
2019-02-10T02:43:30.527Z,53.30
2019-02-10T02:46:02.365Z,53.50
2019-02-10T02:48:34.203Z,53.40
2019-02-10T02:51:06.144Z,53.40
2019-02-10T02:53:37.942Z,53.40
2019-02-10T02:56:09.875Z,54.10
2019-02-10T02:58:41.727Z,53.40
2019-02-10T03:01:13.556Z,53.60
2019-02-10T03:03:45.457Z,53.50
2019-02-10T03:06:17.436Z,53.80
2019-02-10T03:08:49.201Z,53.80
2019-02-10T03:11:21.058Z,53.80
2019-02-10T03:13:52.891Z,53.80
2019-02-10T03:16:24.747Z,54.00
2019-02-10T03:18:56.778Z,53.90
2019-02-10T03:21:28.560Z,54.00
2019-02-10T03:24:00.737Z,54.00
2019-02-10T03:26:32.593Z,54.10
2019-02-10T03:29:04.446Z,54.20
2019-02-10T03:31:36.207Z,54.30
2019-02-10T03:34:08.212Z,55.20
2019-02-10T03:36:40.055Z,54.60
2019-02-10T03:39:12.024Z,55.30
2019-02-10T03:41:43.936Z,54.60
2019-02-10T03:44:15.905Z,54.80
2019-02-10T03:46:47.906Z,55.00
2019-02-10T03:49:19.817Z,55.20
2019-02-10T03:51:51.603Z,55.20
2019-02-10T03:54:23.434Z,55.10
2019-02-10T03:56:55.352Z,55.40
2019-02-10T03:59:27.143Z,55.40
2019-02-10T04:01:58.984Z,55.70
2019-02-10T04:04:30.958Z,55.80
2019-02-10T04:07:03.326Z,55.80
2019-02-10T04:09:35.426Z,56.00
2019-02-10T04:12:07.575Z,56.60
2019-02-10T04:14:39.458Z,56.00
2019-02-10T04:17:11.270Z,56.30
2019-02-10T04:19:43.210Z,56.20
2019-02-10T04:22:15.333Z,56.30
2019-02-10T04:24:47.442Z,56.50
2019-02-10T04:27:19.381Z,56.50
2019-02-10T04:29:51.415Z,56.50
2019-02-10T04:32:23.195Z,56.80
2019-02-10T04:34:54.997Z,56.70
2019-02-10T04:37:27.041Z,57.60
2019-02-10T04:39:59.117Z,57.00
2019-02-10T04:42:31.085Z,57.90
2019-02-10T04:45:02.950Z,58.00
2019-02-10T04:47:34.850Z,58.00
2019-02-10T04:50:07.101Z,57.90
2019-02-10T04:52:38.959Z,58.10
2019-02-10T04:55:10.949Z,58.10
2019-02-10T04:57:42.983Z,58.20
2019-02-10T05:00:14.885Z,58.30
2019-02-10T05:02:46.716Z,58.30
2019-02-10T05:05:18.860Z,58.50
2019-02-10T05:07:54.487Z,58.50
2019-02-10T05:10:24.334Z,58.50
2019-02-10T05:12:56.153Z,58.50
2019-02-10T05:15:27.997Z,58.50
2019-02-10T05:17:59.795Z,58.70
2019-02-10T05:20:31.592Z,59.10
2019-02-10T05:23:03.727Z,58.70
2019-02-10T05:25:35.544Z,58.80
2019-02-10T05:28:07.346Z,58.80
2019-02-10T05:30:39.232Z,59.70
2019-02-10T05:33:11.225Z,59.10
2019-02-10T05:35:43.042Z,59.00
2019-02-10T05:38:14.859Z,59.20
2019-02-10T05:40:46.694Z,59.10
2019-02-10T05:43:18.643Z,59.40
2019-02-10T05:45:50.475Z,59.20
2019-02-10T05:48:22.310Z,59.40
2019-02-10T05:50:54.139Z,59.40
2019-02-10T05:53:25.948Z,59.50
2019-02-10T05:55:57.789Z,59.50
2019-02-10T05:58:29.612Z,59.60
2019-02-10T06:01:55.653Z,58.90
2019-02-10T06:04:27.937Z,58.80
2019-02-10T06:07:03.321Z,58.70
2019-02-10T06:09:35.174Z,58.90
2019-02-10T06:12:07.219Z,59.00
2019-02-10T06:14:39.218Z,59.10
2019-02-10T06:17:18.363Z,59.30
2019-02-10T06:19:50.514Z,59.30
2019-02-10T06:22:22.287Z,59.70
2019-02-10T06:24:54.098Z,59.40
2019-02-10T06:27:26.041Z,59.50
2019-02-10T06:29:58.084Z,59.40
2019-02-10T06:32:29.930Z,59.60
2019-02-10T06:35:01.783Z,59.50
2019-02-10T06:37:33.548Z,59.70
2019-02-10T06:40:07.930Z,59.70
2019-02-10T06:42:39.866Z,59.70
2019-02-10T06:45:14.051Z,60.00
2019-02-10T06:47:46.106Z,59.80
2019-02-10T06:50:19.412Z,59.90
2019-02-10T06:52:51.345Z,60.70
2019-02-10T06:55:23.278Z,60.10
2019-02-10T06:57:55.189Z,60.10
2019-02-10T07:00:54.211Z,60.00
2019-02-10T07:03:57.748Z,60.20
2019-02-10T07:06:29.757Z,60.20
2019-02-10T07:09:01.705Z,60.40
2019-02-10T07:11:36.948Z,60.40
2019-02-10T07:14:40.872Z,60.60
2019-02-10T07:17:53.019Z,60.90
2019-02-10T07:20:44.453Z,60.50
2019-02-10T07:24:25.820Z,60.50
2019-02-10T07:27:21.615Z,60.70
2019-02-10T07:30:49.853Z,60.70
2019-02-10T07:34:12.720Z,60.80
2019-02-10T07:37:40.216Z,60.80
2019-02-10T07:41:09.934Z,60.90
2019-02-10T07:45:17.862Z,60.90
2019-02-10T07:48:36.576Z,61.40
2019-02-10T07:52:00.422Z,61.60
2019-02-10T07:55:31.604Z,61.60
2019-02-10T07:59:00.652Z,61.40
2019-02-10T08:02:14.159Z,61.20
2019-02-10T08:05:38.226Z,61.30
2019-02-10T08:09:10.938Z,61.50
2019-02-10T08:12:58.769Z,61.40
2019-02-10T08:15:49.722Z,61.40
2019-02-10T08:19:27.166Z,61.30
2019-02-10T08:22:39.228Z,61.50
2019-02-10T08:26:09.872Z,61.40
2019-02-10T08:29:29.269Z,61.60
2019-02-10T08:33:25.582Z,61.50
2019-02-10T08:36:34.673Z,61.50
2019-02-10T08:40:16.753Z,61.60
2019-02-10T08:43:53.919Z,61.50
2019-02-10T08:47:33.434Z,61.60
2019-02-10T08:51:00.175Z,61.60
2019-02-10T08:53:39.694Z,61.60
2019-02-10T08:56:13.416Z,61.50
2019-02-10T08:58:45.206Z,61.60
2019-02-10T09:01:18.636Z,61.50
2019-02-10T09:03:50.596Z,61.80
2019-02-10T09:06:22.543Z,61.60
2019-02-10T09:09:02.302Z,61.60
2019-02-10T09:11:28.616Z,61.80
2019-02-10T09:14:00.475Z,61.60
2019-02-10T09:16:34.863Z,61.70
2019-02-10T09:19:07.082Z,61.60
2019-02-10T09:21:39.236Z,61.50
2019-02-10T09:24:11.350Z,61.50
2019-02-10T09:26:43.344Z,61.50
2019-02-10T09:29:15.223Z,61.30
2019-02-10T09:31:47.291Z,61.30
2019-02-10T09:34:19.370Z,61.40
2019-02-10T09:36:51.319Z,61.90
2019-02-10T09:39:23.283Z,61.40
2019-02-10T09:41:55.402Z,61.50
2019-02-10T09:44:27.633Z,61.40
2019-02-10T09:46:59.562Z,61.40
2019-02-10T09:49:31.614Z,61.00
2019-02-10T09:52:05.142Z,61.60
2019-02-10T09:54:37.270Z,61.50
2019-02-10T09:57:09.197Z,61.60
2019-02-10T09:59:41.210Z,61.60
2019-02-10T10:02:16.224Z,61.40
2019-02-10T10:04:48.199Z,61.50
2019-02-10T10:07:20.224Z,61.60
2019-02-10T10:09:52.118Z,61.60
2019-02-10T10:12:24.079Z,61.60
2019-02-10T10:14:56.290Z,61.70
2019-02-10T10:17:28.120Z,61.90
2019-02-10T10:20:00.015Z,62.20
2019-02-10T10:22:32.445Z,62.20
2019-02-10T10:25:04.750Z,62.30
2019-02-10T10:27:43.455Z,62.40
2019-02-10T10:30:18.901Z,62.60
2019-02-10T10:32:50.748Z,62.60
2019-02-10T10:35:22.902Z,62.80
2019-02-10T10:37:54.864Z,62.90
2019-02-10T10:40:26.869Z,62.80
2019-02-10T10:42:58.799Z,62.90
2019-02-10T10:45:30.694Z,62.90
2019-02-10T10:48:03.045Z,62.90
2019-02-10T10:50:35.031Z,62.90
2019-02-10T10:53:06.873Z,63.10
2019-02-10T10:55:38.853Z,63.20
2019-02-10T10:58:11.949Z,63.00
2019-02-10T11:00:46.144Z,63.10
2019-02-10T11:03:17.863Z,64.00
2019-02-10T11:05:49.974Z,63.10
2019-02-10T11:08:22.069Z,63.20
2019-02-10T11:10:54.122Z,63.30
2019-02-10T11:13:26.075Z,63.30
2019-02-10T11:15:58.035Z,63.40
2019-02-10T11:18:29.890Z,63.50
2019-02-10T11:21:01.850Z,63.50
2019-02-10T11:23:34.055Z,63.50
2019-02-10T11:26:05.979Z,63.40
2019-02-10T11:28:37.964Z,63.50
2019-02-10T11:31:10.008Z,63.60
2019-02-10T11:33:41.889Z,63.50
2019-02-10T11:36:15.096Z,63.50
2019-02-10T11:38:47.169Z,63.50
2019-02-10T11:41:18.992Z,63.40
2019-02-10T11:43:51.285Z,63.30
2019-02-10T11:46:23.415Z,63.40
2019-02-10T11:48:55.379Z,63.30
2019-02-10T11:51:27.337Z,63.40
2019-02-10T11:54:04.814Z,63.30
2019-02-10T11:56:36.901Z,63.60
2019-02-10T11:59:08.844Z,63.30
2019-02-10T12:01:40.900Z,63.30
2019-02-10T12:04:12.879Z,63.10
2019-02-10T12:06:44.851Z,63.10
2019-02-10T12:09:16.898Z,63.10
2019-02-10T12:12:06.876Z,63.10
2019-02-10T12:14:38.846Z,63.20
2019-02-10T12:17:10.907Z,62.60
2019-02-10T12:19:44.338Z,62.40
2019-02-10T12:22:16.311Z,62.50
2019-02-10T12:24:48.329Z,62.50
2019-02-10T12:27:20.275Z,62.50
2019-02-10T12:29:52.471Z,62.30
2019-02-10T12:32:24.541Z,62.30
2019-02-10T12:34:56.482Z,62.30
2019-02-10T12:37:32.460Z,62.20
2019-02-10T12:40:02.007Z,61.90
2019-02-10T12:42:34.032Z,61.60
2019-02-10T12:45:06.773Z,61.20
2019-02-10T12:47:38.614Z,61.10
2019-02-10T12:50:11.959Z,61.00
2019-02-10T12:52:43.992Z,61.00
2019-02-10T12:55:16.134Z,61.00
2019-02-10T12:57:48.043Z,61.00
2019-02-10T13:00:19.980Z,61.80
2019-02-10T13:02:51.976Z,60.90
2019-02-10T13:05:24.135Z,61.00
2019-02-10T13:07:56.127Z,61.10
2019-02-10T13:10:28.273Z,61.20
2019-02-10T13:13:00.379Z,61.40
2019-02-10T13:15:32.223Z,61.50
2019-02-10T13:18:04.220Z,61.60
2019-02-10T13:20:36.250Z,61.50
2019-02-10T13:23:08.374Z,61.60
2019-02-10T13:25:40.516Z,61.50
2019-02-10T13:28:12.708Z,61.50
2019-02-10T13:30:44.662Z,61.70
2019-02-10T13:33:16.578Z,61.50
2019-02-10T13:35:48.485Z,61.50
2019-02-10T13:38:20.555Z,61.40
2019-02-10T13:40:52.511Z,61.50
2019-02-10T13:43:24.551Z,61.60
2019-02-10T13:45:56.755Z,61.50
2019-02-10T13:48:28.923Z,61.10
2019-02-10T13:51:00.751Z,61.50
2019-02-10T13:53:32.743Z,61.50
2019-02-10T13:56:04.754Z,61.30
2019-02-10T13:58:36.779Z,61.30
2019-02-10T14:01:08.610Z,61.20
2019-02-10T14:03:40.763Z,61.20
2019-02-10T14:06:12.690Z,61.10
2019-02-10T14:08:44.640Z,61.00
2019-02-10T14:11:18.250Z,61.10
2019-02-10T14:13:50.439Z,61.20
2019-02-10T14:16:22.520Z,61.20
2019-02-10T14:18:54.600Z,61.20
2019-02-10T14:21:26.505Z,61.20
2019-02-10T14:23:58.574Z,61.10
2019-02-10T14:26:30.697Z,61.20
2019-02-10T14:29:02.571Z,61.20
2019-02-10T14:31:34.467Z,61.20
2019-02-10T14:34:06.486Z,61.20
2019-02-10T14:36:38.576Z,61.10
2019-02-10T14:39:10.776Z,61.00
2019-02-10T14:41:42.899Z,60.90
2019-02-10T14:44:14.964Z,60.90
2019-02-10T14:46:46.945Z,61.50
2019-02-10T14:49:19.050Z,60.70
2019-02-10T14:51:53.271Z,60.30
2019-02-10T14:54:26.667Z,60.60
2019-02-10T14:56:58.926Z,60.50
2019-02-10T14:59:31.187Z,60.70
2019-02-10T15:02:03.246Z,60.60
2019-02-10T15:04:35.155Z,60.20
2019-02-10T15:07:07.352Z,60.10
2019-02-10T15:09:39.567Z,59.80
2019-02-10T15:12:17.500Z,59.70
2019-02-10T15:14:49.733Z,59.80
2019-02-10T15:17:21.774Z,59.90
2019-02-10T15:19:53.838Z,60.00
2019-02-10T15:22:25.842Z,60.10
2019-02-10T15:24:59.688Z,60.50
2019-02-10T15:27:33.035Z,60.90
2019-02-10T15:30:05.129Z,61.20
2019-02-10T15:32:37.562Z,61.20
2019-02-10T15:35:09.878Z,61.40
2019-02-10T15:37:41.912Z,61.70
2019-02-10T15:40:14.031Z,61.70
2019-02-10T15:42:46.036Z,61.80
2019-02-10T15:45:18.275Z,61.70
2019-02-10T15:48:03.139Z,61.70
2019-02-10T15:50:35.155Z,61.70
2019-02-10T15:53:07.099Z,61.50
2019-02-10T15:55:38.987Z,61.50
2019-02-10T15:58:11.024Z,61.60
2019-02-10T16:00:43.004Z,61.60
2019-02-10T16:03:15.146Z,61.80
2019-02-10T16:05:47.147Z,61.80
2019-02-10T16:08:19.324Z,62.40
2019-02-10T16:10:57.915Z,61.80
2019-02-10T16:13:25.252Z,61.90
2019-02-10T16:15:57.113Z,62.10
2019-02-10T16:18:29.870Z,62.20
2019-02-10T16:21:02.201Z,62.20
2019-02-10T16:23:34.245Z,62.10
2019-02-10T16:26:06.372Z,62.00
2019-02-10T16:28:38.460Z,62.50
2019-02-10T16:31:10.513Z,61.30
2019-02-10T16:33:42.955Z,61.10
2019-02-10T16:36:26.737Z,61.60
2019-02-10T16:38:59.149Z,61.70
2019-02-10T16:41:31.047Z,61.30
2019-02-10T16:44:03.171Z,61.20
2019-02-10T16:46:35.233Z,61.10
2019-02-10T16:49:07.531Z,61.70
2019-02-10T16:51:39.562Z,61.20
2019-02-10T16:54:11.555Z,60.80
2019-02-10T16:56:44.874Z,60.80
2019-02-10T16:59:16.761Z,60.70
2019-02-10T17:01:48.765Z,60.80
2019-02-10T17:04:20.692Z,61.00
2019-02-10T17:06:53.765Z,61.10
2019-02-10T17:09:27.653Z,61.10
2019-02-10T17:11:59.636Z,61.20
2019-02-10T17:14:31.930Z,61.20
2019-02-10T17:17:07.784Z,61.20
2019-02-10T17:19:39.893Z,61.20
2019-02-10T17:22:11.899Z,61.90
2019-02-10T17:24:44.209Z,61.40
2019-02-10T17:27:16.473Z,61.00
2019-02-10T17:29:48.680Z,61.10
2019-02-10T17:32:21.001Z,61.10
2019-02-10T17:34:53.033Z,61.10
2019-02-10T17:37:26.725Z,61.00
2019-02-10T17:39:59.552Z,61.10
2019-02-10T17:42:31.512Z,62.30
2019-02-10T17:45:03.604Z,62.20
2019-02-10T17:47:35.742Z,62.30
2019-02-10T17:50:09.562Z,62.20
2019-02-10T17:52:42.535Z,62.20
2019-02-10T17:55:18.177Z,62.30
2019-02-10T17:57:52.066Z,62.20
2019-02-10T18:00:28.553Z,62.30
2019-02-10T18:03:00.800Z,62.10
2019-02-10T18:05:32.831Z,62.00
2019-02-10T18:08:04.787Z,62.00
2019-02-10T18:10:36.698Z,62.00
2019-02-10T18:13:11.718Z,62.80
2019-02-10T18:16:01.290Z,62.00
2019-02-10T18:18:41.956Z,62.10
2019-02-10T18:21:32.825Z,62.30
2019-02-10T18:24:26.057Z,62.20
2019-02-10T18:27:05.197Z,62.30
2019-02-10T18:29:53.529Z,62.40
2019-02-10T18:32:55.505Z,62.20
2019-02-10T18:35:44.972Z,62.30
2019-02-10T18:38:35.786Z,62.20
2019-02-10T18:41:25.179Z,62.50
2019-02-10T18:44:19.960Z,62.50
2019-02-10T18:47:13.622Z,62.40
2019-02-10T18:50:14.645Z,62.20
2019-02-10T18:53:04.978Z,62.10
2019-02-10T18:55:59.383Z,61.90
2019-02-10T18:58:54.252Z,61.70
2019-02-10T19:01:38.956Z,61.70
2019-02-10T19:04:29.061Z,61.50
2019-02-10T19:07:22.672Z,61.40
2019-02-10T19:10:25.209Z,61.40
2019-02-10T19:13:16.059Z,61.20
2019-02-10T19:16:09.756Z,61.30
2019-02-10T19:18:59.457Z,61.20
2019-02-10T19:21:45.266Z,61.20
2019-02-10T19:24:30.452Z,61.30
2019-02-10T19:27:19.856Z,61.30
2019-02-10T19:30:16.721Z,61.30
2019-02-10T19:33:07.754Z,61.20
2019-02-10T19:36:14.172Z,61.30
2019-02-10T19:39:01.933Z,61.50
2019-02-10T19:41:55.628Z,61.80
2019-02-10T19:44:41.732Z,61.80
2019-02-10T19:47:21.943Z,62.00
2019-02-10T19:50:18.278Z,61.60
2019-02-10T19:53:06.144Z,61.80
2019-02-10T19:55:48.939Z,61.70
2019-02-10T19:58:40.070Z,61.60
2019-02-10T20:01:49.158Z,61.40
2019-02-10T20:04:35.051Z,61.50
2019-02-10T20:07:23.768Z,61.60
2019-02-10T20:10:04.203Z,61.50
2019-02-10T20:12:55.174Z,61.50
2019-02-10T20:15:42.946Z,61.60
2019-02-10T20:18:28.016Z,61.60
2019-02-10T20:21:06.829Z,61.50
2019-02-10T20:23:58.049Z,61.50
2019-02-10T20:27:04.162Z,61.60
2019-02-10T20:29:53.911Z,61.60
2019-02-10T20:32:45.070Z,61.80
2019-02-10T20:35:35.241Z,61.90
2019-02-10T20:38:25.979Z,61.90
2019-02-10T20:41:04.985Z,62.00
2019-02-10T20:43:58.757Z,61.50
2019-02-10T20:47:01.879Z,61.90
2019-02-10T20:49:45.945Z,61.80
2019-02-10T20:52:25.588Z,61.80
2019-02-10T20:55:08.855Z,61.80
2019-02-10T20:58:05.680Z,62.40
2019-02-10T21:01:02.353Z,61.60
2019-02-10T21:03:50.674Z,61.40
2019-02-10T21:06:41.783Z,61.50
2019-02-10T21:09:17.803Z,61.50
2019-02-10T21:12:07.385Z,61.30
2019-02-10T21:14:54.730Z,61.20
2019-02-10T21:17:54.697Z,61.00
2019-02-10T21:20:34.631Z,61.00
2019-02-10T21:23:43.814Z,60.90
2019-02-10T21:26:40.744Z,60.90
2019-02-10T21:29:35.106Z,61.00
2019-02-10T21:32:27.078Z,61.20
2019-02-10T21:35:18.033Z,61.00
2019-02-10T21:37:57.767Z,60.90
2019-02-10T21:40:38.633Z,61.10
2019-02-10T21:43:44.508Z,61.10
2019-02-10T21:46:35.468Z,61.10
2019-02-10T21:49:09.856Z,61.00
2019-02-10T21:51:41.870Z,60.90
2019-02-10T21:54:13.818Z,60.50
2019-02-10T21:56:45.921Z,60.40
2019-02-10T21:59:17.999Z,60.50
2019-02-10T22:01:53.661Z,61.00
2019-02-10T22:04:24.076Z,60.20
2019-02-10T22:06:56.064Z,60.50
2019-02-10T22:09:27.978Z,60.50
2019-02-10T22:11:59.771Z,60.40
2019-02-10T22:14:31.926Z,60.60
2019-02-10T22:17:04.107Z,60.70
2019-02-10T22:19:36.026Z,60.70
2019-02-10T22:22:09.124Z,60.70
2019-02-10T22:24:41.697Z,60.90
2019-02-10T22:27:13.650Z,61.00
2019-02-10T22:29:45.502Z,61.10
2019-02-10T22:32:17.576Z,61.30
2019-02-10T22:34:50.595Z,61.30
2019-02-10T22:37:22.541Z,61.30
2019-02-10T22:39:54.356Z,62.10
2019-02-10T22:42:26.303Z,61.10
2019-02-10T22:44:58.171Z,61.00
2019-02-10T22:47:30.233Z,61.20
2019-02-10T22:50:02.201Z,61.20
2019-02-10T22:52:34.407Z,61.40
2019-02-10T22:55:07.110Z,61.60
2019-02-10T22:57:41.030Z,61.60
2019-02-10T23:00:42.256Z,62.30
2019-02-10T23:03:14.538Z,61.60
2019-02-10T23:05:47.171Z,61.50
2019-02-10T23:08:19.252Z,61.70
2019-02-10T23:10:52.008Z,61.80
2019-02-10T23:13:24.317Z,61.90
2019-02-10T23:15:56.250Z,62.20
2019-02-10T23:18:28.079Z,62.20
2019-02-10T23:21:00.113Z,63.00
2019-02-10T23:23:32.100Z,63.30
2019-02-10T23:26:04.046Z,62.50
2019-02-10T23:28:35.981Z,62.40
2019-02-10T23:31:08.074Z,62.50
2019-02-10T23:33:40.267Z,62.50
2019-02-10T23:36:12.104Z,62.70
2019-02-10T23:38:44.103Z,62.60
2019-02-10T23:41:16.131Z,62.50
2019-02-10T23:43:47.966Z,62.60
2019-02-10T23:46:19.827Z,62.70
2019-02-10T23:48:51.783Z,62.80
2019-02-10T23:51:23.626Z,62.80
2019-02-10T23:53:55.472Z,62.80
2019-02-10T23:56:27.281Z,62.90
2019-02-10T23:58:59.339Z,62.60
